sensor_id;sensor_type;location;lat;lon;timestamp;P1;durP1;ratioP1;P2;durP2;ratioP2
79126;SDS011;68528;48.814;8.904;2023-09-30T00:01:44;4.88;;;2.15;;
79126;SDS011;68528;48.814;8.904;2023-09-30T00:04:11;6.35;;;1.88;;
79126;SDS011;68528;48.814;8.904;2023-09-30T00:06:36;6.78;;;1.95;;
79126;SDS011;68528;48.814;8.904;2023-09-30T00:11:51;6.30;;;2.97;;
79126;SDS011;68528;48.814;8.904;2023-09-30T00:14:17;4.65;;;2.25;;
79126;SDS011;68528;48.814;8.904;2023-09-30T00:16:43;4.65;;;1.90;;
79126;SDS011;68528;48.814;8.904;2023-09-30T00:19:09;6.65;;;1.85;;
79126;SDS011;68528;48.814;8.904;2023-09-30T00:21:34;4.15;;;2.55;;
79126;SDS011;68528;48.814;8.904;2023-09-30T00:27:16;5.03;;;1.70;;
79126;SDS011;68528;48.814;8.904;2023-09-30T00:29:43;3.83;;;1.80;;
79126;SDS011;68528;48.814;8.904;2023-09-30T00:32:08;4.18;;;1.48;;
79126;SDS011;68528;48.814;8.904;2023-09-30T00:34:34;3.67;;;1.60;;
79126;SDS011;68528;48.814;8.904;2023-09-30T00:37:00;6.75;;;1.98;;
79126;SDS011;68528;48.814;8.904;2023-09-30T00:39:26;4.68;;;2.15;;
79126;SDS011;68528;48.814;8.904;2023-09-30T00:41:55;5.35;;;2.67;;
79126;SDS011;68528;48.814;8.904;2023-09-30T00:44:29;3.53;;;1.92;;
79126;SDS011;68528;48.814;8.904;2023-09-30T00:46:56;3.22;;;1.73;;
79126;SDS011;68528;48.814;8.904;2023-09-30T00:49:25;3.67;;;1.70;;
79126;SDS011;68528;48.814;8.904;2023-09-30T00:51:52;2.83;;;1.70;;
79126;SDS011;68528;48.814;8.904;2023-09-30T00:54:20;6.28;;;1.92;;
79126;SDS011;68528;48.814;8.904;2023-09-30T00:56:51;5.75;;;2.72;;
79126;SDS011;68528;48.814;8.904;2023-09-30T00:59:23;4.22;;;1.95;;
79126;SDS011;68528;48.814;8.904;2023-09-30T01:08:10;4.63;;;2.20;;
79126;SDS011;68528;48.814;8.904;2023-09-30T01:10:36;3.28;;;1.92;;
79126;SDS011;68528;48.814;8.904;2023-09-30T01:13:02;4.20;;;2.13;;
79126;SDS011;68528;48.814;8.904;2023-09-30T01:15:28;3.20;;;1.77;;
79126;SDS011;68528;48.814;8.904;2023-09-30T01:17:54;4.20;;;2.17;;
79126;SDS011;68528;48.814;8.904;2023-09-30T01:23:32;4.65;;;2.00;;
79126;SDS011;68528;48.814;8.904;2023-09-30T01:26:03;4.85;;;1.98;;
79126;SDS011;68528;48.814;8.904;2023-09-30T01:28:37;5.30;;;1.85;;
79126;SDS011;68528;48.814;8.904;2023-09-30T01:31:03;3.50;;;2.00;;
79126;SDS011;68528;48.814;8.904;2023-09-30T01:33:29;5.30;;;1.75;;
79126;SDS011;68528;48.814;8.904;2023-09-30T01:35:55;6.32;;;2.58;;
79126;SDS011;68528;48.814;8.904;2023-09-30T01:38:20;5.75;;;2.30;;
79126;SDS011;68528;48.814;8.904;2023-09-30T01:40:46;3.85;;;2.28;;
79126;SDS011;68528;48.814;8.904;2023-09-30T01:43:14;5.78;;;2.80;;
79126;SDS011;68528;48.814;8.904;2023-09-30T01:45:41;4.35;;;2.22;;
79126;SDS011;68528;48.814;8.904;2023-09-30T01:48:09;4.82;;;3.10;;
79126;SDS011;68528;48.814;8.904;2023-09-30T01:50:39;4.65;;;2.45;;
79126;SDS011;68528;48.814;8.904;2023-09-30T01:55:36;4.65;;;2.38;;
79126;SDS011;68528;48.814;8.904;2023-09-30T02:20:03;4.28;;;2.38;;
79126;SDS011;68528;48.814;8.904;2023-09-30T02:22:37;4.40;;;2.53;;
79126;SDS011;68528;48.814;8.904;2023-09-30T02:25:03;4.43;;;2.60;;
79126;SDS011;68528;48.814;8.904;2023-09-30T02:27:32;6.40;;;2.33;;
79126;SDS011;68528;48.814;8.904;2023-09-30T02:29:57;7.70;;;2.15;;
79126;SDS011;68528;48.814;8.904;2023-09-30T02:32:29;5.20;;;2.70;;
79126;SDS011;68528;48.814;8.904;2023-09-30T02:46:15;4.55;;;2.22;;
79126;SDS011;68528;48.814;8.904;2023-09-30T02:49:49;4.43;;;1.98;;
79126;SDS011;68528;48.814;8.904;2023-09-30T02:53:11;6.68;;;2.40;;
79126;SDS011;68528;48.814;8.904;2023-09-30T03:11:25;9.15;;;2.83;;
79126;SDS011;68528;48.814;8.904;2023-09-30T03:17:24;5.57;;;2.22;;
79126;SDS011;68528;48.814;8.904;2023-09-30T03:20:04;5.15;;;2.15;;
79126;SDS011;68528;48.814;8.904;2023-09-30T03:26:20;6.22;;;2.33;;
79126;SDS011;68528;48.814;8.904;2023-09-30T03:28:46;5.30;;;2.33;;
79126;SDS011;68528;48.814;8.904;2023-09-30T03:31:12;4.05;;;2.40;;
79126;SDS011;68528;48.814;8.904;2023-09-30T03:33:39;5.03;;;2.58;;
79126;SDS011;68528;48.814;8.904;2023-09-30T03:36:07;6.07;;;2.80;;
79126;SDS011;68528;48.814;8.904;2023-09-30T03:38:35;7.97;;;2.63;;
79126;SDS011;68528;48.814;8.904;2023-09-30T03:41:01;4.97;;;2.47;;
79126;SDS011;68528;48.814;8.904;2023-09-30T03:43:27;5.32;;;2.60;;
79126;SDS011;68528;48.814;8.904;2023-09-30T03:45:53;4.50;;;2.92;;
79126;SDS011;68528;48.814;8.904;2023-09-30T03:48:19;5.55;;;2.20;;
79126;SDS011;68528;48.814;8.904;2023-09-30T03:50:45;5.22;;;2.63;;
79126;SDS011;68528;48.814;8.904;2023-09-30T03:53:11;4.88;;;2.60;;
79126;SDS011;68528;48.814;8.904;2023-09-30T03:55:37;7.00;;;2.90;;
79126;SDS011;68528;48.814;8.904;2023-09-30T03:58:02;4.25;;;2.35;;
79126;SDS011;68528;48.814;8.904;2023-09-30T04:00:29;6.40;;;2.72;;
79126;SDS011;68528;48.814;8.904;2023-09-30T04:02:54;4.82;;;2.38;;
79126;SDS011;68528;48.814;8.904;2023-09-30T04:05:26;4.93;;;2.17;;
79126;SDS011;68528;48.814;8.904;2023-09-30T04:07:59;5.40;;;2.65;;
79126;SDS011;68528;48.814;8.904;2023-09-30T04:10:25;5.70;;;2.95;;
79126;SDS011;68528;48.814;8.904;2023-09-30T04:12:51;5.40;;;2.63;;
79126;SDS011;68528;48.814;8.904;2023-09-30T04:15:37;5.88;;;2.35;;
79126;SDS011;68528;48.814;8.904;2023-09-30T04:18:04;11.07;;;3.25;;
79126;SDS011;68528;48.814;8.904;2023-09-30T04:20:33;9.82;;;3.20;;
79126;SDS011;68528;48.814;8.904;2023-09-30T04:22:58;7.47;;;3.03;;
79126;SDS011;68528;48.814;8.904;2023-09-30T04:25:24;7.38;;;2.97;;
79126;SDS011;68528;48.814;8.904;2023-09-30T04:27:55;5.68;;;3.10;;
79126;SDS011;68528;48.814;8.904;2023-09-30T04:30:22;6.30;;;2.90;;
79126;SDS011;68528;48.814;8.904;2023-09-30T04:33:15;7.78;;;2.88;;
79126;SDS011;68528;48.814;8.904;2023-09-30T04:35:43;9.30;;;3.08;;
79126;SDS011;68528;48.814;8.904;2023-09-30T04:38:10;4.30;;;2.72;;
79126;SDS011;68528;48.814;8.904;2023-09-30T04:40:35;7.15;;;2.55;;
79126;SDS011;68528;48.814;8.904;2023-09-30T04:43:03;6.85;;;3.10;;
79126;SDS011;68528;48.814;8.904;2023-09-30T04:45:32;4.72;;;2.63;;
79126;SDS011;68528;48.814;8.904;2023-09-30T04:47:58;5.15;;;2.65;;
79126;SDS011;68528;48.814;8.904;2023-09-30T04:50:27;5.30;;;3.00;;
79126;SDS011;68528;48.814;8.904;2023-09-30T04:52:52;7.60;;;2.97;;
79126;SDS011;68528;48.814;8.904;2023-09-30T04:55:38;8.98;;;3.65;;
79126;SDS011;68528;48.814;8.904;2023-09-30T04:58:04;9.05;;;3.60;;
79126;SDS011;68528;48.814;8.904;2023-09-30T05:00:33;7.10;;;3.25;;
79126;SDS011;68528;48.814;8.904;2023-09-30T05:03:00;5.65;;;3.05;;
79126;SDS011;68528;48.814;8.904;2023-09-30T05:05:29;6.00;;;3.10;;
79126;SDS011;68528;48.814;8.904;2023-09-30T05:08:00;9.82;;;3.33;;
79126;SDS011;68528;48.814;8.904;2023-09-30T05:10:26;7.57;;;3.30;;
79126;SDS011;68528;48.814;8.904;2023-09-30T05:12:55;6.43;;;3.45;;
79126;SDS011;68528;48.814;8.904;2023-09-30T05:15:21;5.55;;;3.03;;
79126;SDS011;68528;48.814;8.904;2023-09-30T05:18:10;9.20;;;3.83;;
79126;SDS011;68528;48.814;8.904;2023-09-30T05:20:38;6.72;;;3.08;;
79126;SDS011;68528;48.814;8.904;2023-09-30T05:23:22;7.22;;;3.03;;
79126;SDS011;68528;48.814;8.904;2023-09-30T05:25:50;6.57;;;3.05;;
79126;SDS011;68528;48.814;8.904;2023-09-30T05:28:16;4.20;;;2.72;;
79126;SDS011;68528;48.814;8.904;2023-09-30T05:30:41;7.43;;;3.45;;
79126;SDS011;68528;48.814;8.904;2023-09-30T05:33:11;8.50;;;3.25;;
79126;SDS011;68528;48.814;8.904;2023-09-30T05:35:42;10.77;;;3.90;;
79126;SDS011;68528;48.814;8.904;2023-09-30T05:38:08;6.30;;;4.28;;
79126;SDS011;68528;48.814;8.904;2023-09-30T05:40:38;5.70;;;3.65;;
79126;SDS011;68528;48.814;8.904;2023-09-30T05:43:05;7.90;;;3.75;;
79126;SDS011;68528;48.814;8.904;2023-09-30T05:45:31;5.35;;;3.38;;
79126;SDS011;68528;48.814;8.904;2023-09-30T05:50:35;7.22;;;4.25;;
79126;SDS011;68528;48.814;8.904;2023-09-30T05:53:01;8.60;;;3.67;;
79126;SDS011;68528;48.814;8.904;2023-09-30T05:55:27;11.98;;;3.17;;
79126;SDS011;68528;48.814;8.904;2023-09-30T05:57:54;8.68;;;3.40;;
79126;SDS011;68528;48.814;8.904;2023-09-30T06:00:20;7.90;;;3.70;;
79126;SDS011;68528;48.814;8.904;2023-09-30T06:02:47;6.13;;;3.50;;
79126;SDS011;68528;48.814;8.904;2023-09-30T06:05:13;9.00;;;3.67;;
79126;SDS011;68528;48.814;8.904;2023-09-30T06:07:41;9.70;;;3.90;;
79126;SDS011;68528;48.814;8.904;2023-09-30T06:10:10;6.32;;;3.08;;
79126;SDS011;68528;48.814;8.904;2023-09-30T06:12:35;11.70;;;4.00;;
79126;SDS011;68528;48.814;8.904;2023-09-30T06:15:01;8.25;;;3.25;;
79126;SDS011;68528;48.814;8.904;2023-09-30T06:17:30;5.65;;;3.63;;
79126;SDS011;68528;48.814;8.904;2023-09-30T06:23:17;8.00;;;3.33;;
79126;SDS011;68528;48.814;8.904;2023-09-30T06:25:45;11.05;;;3.70;;
79126;SDS011;68528;48.814;8.904;2023-09-30T06:28:11;9.73;;;3.97;;
79126;SDS011;68528;48.814;8.904;2023-09-30T06:30:41;10.55;;;4.38;;
79126;SDS011;68528;48.814;8.904;2023-09-30T06:33:10;10.10;;;5.25;;
79126;SDS011;68528;48.814;8.904;2023-09-30T06:35:40;9.85;;;4.28;;
79126;SDS011;68528;48.814;8.904;2023-09-30T06:38:15;6.97;;;3.75;;
79126;SDS011;68528;48.814;8.904;2023-09-30T06:40:40;9.48;;;4.03;;
79126;SDS011;68528;48.814;8.904;2023-09-30T06:43:07;7.97;;;4.28;;
79126;SDS011;68528;48.814;8.904;2023-09-30T06:45:49;7.82;;;4.63;;
79126;SDS011;68528;48.814;8.904;2023-09-30T06:48:19;7.25;;;3.83;;
79126;SDS011;68528;48.814;8.904;2023-09-30T06:50:56;8.10;;;4.32;;
79126;SDS011;68528;48.814;8.904;2023-09-30T06:56:13;12.40;;;5.05;;
79126;SDS011;68528;48.814;8.904;2023-09-30T06:58:39;10.88;;;4.88;;
79126;SDS011;68528;48.814;8.904;2023-09-30T07:01:09;11.30;;;5.00;;
79126;SDS011;68528;48.814;8.904;2023-09-30T07:03:43;10.90;;;4.63;;
79126;SDS011;68528;48.814;8.904;2023-09-30T07:06:09;9.45;;;5.20;;
79126;SDS011;68528;48.814;8.904;2023-09-30T07:08:34;7.07;;;5.63;;
79126;SDS011;68528;48.814;8.904;2023-09-30T07:11:04;10.50;;;4.75;;
79126;SDS011;68528;48.814;8.904;2023-09-30T07:13:30;6.47;;;4.00;;
79126;SDS011;68528;48.814;8.904;2023-09-30T07:16:16;8.15;;;4.40;;
79126;SDS011;68528;48.814;8.904;2023-09-30T07:18:42;8.60;;;3.90;;
79126;SDS011;68528;48.814;8.904;2023-09-30T07:21:07;6.95;;;3.88;;
79126;SDS011;68528;48.814;8.904;2023-09-30T07:26:29;13.48;;;4.25;;
79126;SDS011;68528;48.814;8.904;2023-09-30T07:28:55;12.10;;;4.55;;
79126;SDS011;68528;48.814;8.904;2023-09-30T07:31:23;9.00;;;4.78;;
79126;SDS011;68528;48.814;8.904;2023-09-30T07:33:49;9.10;;;4.80;;
79126;SDS011;68528;48.814;8.904;2023-09-30T07:39:55;9.98;;;4.53;;
79126;SDS011;68528;48.814;8.904;2023-09-30T07:42:40;9.55;;;4.43;;
79126;SDS011;68528;48.814;8.904;2023-09-30T07:45:06;7.93;;;5.10;;
79126;SDS011;68528;48.814;8.904;2023-09-30T07:47:33;9.27;;;4.85;;
79126;SDS011;68528;48.814;8.904;2023-09-30T07:50:00;8.73;;;4.07;;
79126;SDS011;68528;48.814;8.904;2023-09-30T07:52:34;10.85;;;4.13;;
79126;SDS011;68528;48.814;8.904;2023-09-30T07:55:00;11.93;;;4.55;;
79126;SDS011;68528;48.814;8.904;2023-09-30T07:57:25;10.40;;;4.47;;
79126;SDS011;68528;48.814;8.904;2023-09-30T07:59:51;6.50;;;3.58;;
79126;SDS011;68528;48.814;8.904;2023-09-30T08:02:21;8.13;;;3.97;;
79126;SDS011;68528;48.814;8.904;2023-09-30T08:04:47;5.63;;;3.35;;
79126;SDS011;68528;48.814;8.904;2023-09-30T08:07:34;7.50;;;3.33;;
79126;SDS011;68528;48.814;8.904;2023-09-30T08:15:15;6.82;;;2.70;;
79126;SDS011;68528;48.814;8.904;2023-09-30T08:17:40;5.20;;;2.10;;
79126;SDS011;68528;48.814;8.904;2023-09-30T08:20:13;5.40;;;2.72;;
79126;SDS011;68528;48.814;8.904;2023-09-30T08:22:39;8.70;;;3.58;;
79126;SDS011;68528;48.814;8.904;2023-09-30T08:25:06;7.75;;;2.92;;
79126;SDS011;68528;48.814;8.904;2023-09-30T08:27:32;6.30;;;3.10;;
79126;SDS011;68528;48.814;8.904;2023-09-30T08:29:57;9.07;;;2.97;;
79126;SDS011;68528;48.814;8.904;2023-09-30T08:32:35;5.57;;;2.55;;
79126;SDS011;68528;48.814;8.904;2023-09-30T08:37:48;8.25;;;3.75;;
79126;SDS011;68528;48.814;8.904;2023-09-30T08:40:13;6.65;;;3.05;;
79126;SDS011;68528;48.814;8.904;2023-09-30T08:48:45;5.95;;;2.55;;
79126;SDS011;68528;48.814;8.904;2023-09-30T08:51:11;9.25;;;2.85;;
79126;SDS011;68528;48.814;8.904;2023-09-30T08:53:37;8.55;;;3.33;;
79126;SDS011;68528;48.814;8.904;2023-09-30T08:56:04;8.13;;;2.70;;
79126;SDS011;68528;48.814;8.904;2023-09-30T08:58:35;8.40;;;2.83;;
79126;SDS011;68528;48.814;8.904;2023-09-30T09:04:50;7.18;;;2.72;;
79126;SDS011;68528;48.814;8.904;2023-09-30T09:07:16;4.43;;;2.10;;
79126;SDS011;68528;48.814;8.904;2023-09-30T09:09:41;5.53;;;2.50;;
79126;SDS011;68528;48.814;8.904;2023-09-30T09:12:31;5.45;;;2.15;;
79126;SDS011;68528;48.814;8.904;2023-09-30T09:14:58;4.20;;;2.33;;
79126;SDS011;68528;48.814;8.904;2023-09-30T09:17:23;5.78;;;1.88;;
79126;SDS011;68528;48.814;8.904;2023-09-30T09:20:19;6.25;;;2.22;;
79126;SDS011;68528;48.814;8.904;2023-09-30T09:22:53;6.82;;;2.83;;
79126;SDS011;68528;48.814;8.904;2023-09-30T09:25:25;6.28;;;2.38;;
79126;SDS011;68528;48.814;8.904;2023-09-30T09:27:53;5.15;;;2.50;;
79126;SDS011;68528;48.814;8.904;2023-09-30T09:30:20;7.38;;;2.78;;
79126;SDS011;68528;48.814;8.904;2023-09-30T09:32:53;9.23;;;3.00;;
79126;SDS011;68528;48.814;8.904;2023-09-30T09:38:21;4.72;;;2.10;;
79126;SDS011;68528;48.814;8.904;2023-09-30T09:40:47;4.20;;;2.28;;
79126;SDS011;68528;48.814;8.904;2023-09-30T09:43:12;8.30;;;2.70;;
79126;SDS011;68528;48.814;8.904;2023-09-30T09:45:38;7.43;;;3.05;;
79126;SDS011;68528;48.814;8.904;2023-09-30T09:51:06;3.88;;;2.65;;
79126;SDS011;68528;48.814;8.904;2023-09-30T09:53:35;6.85;;;2.78;;
79126;SDS011;68528;48.814;8.904;2023-09-30T09:56:20;8.52;;;2.72;;
79126;SDS011;68528;48.814;8.904;2023-09-30T10:02:32;6.53;;;2.42;;
79126;SDS011;68528;48.814;8.904;2023-09-30T10:05:04;7.93;;;2.30;;
79126;SDS011;68528;48.814;8.904;2023-09-30T10:07:33;5.18;;;2.78;;
79126;SDS011;68528;48.814;8.904;2023-09-30T10:10:24;9.93;;;2.90;;
79126;SDS011;68528;48.814;8.904;2023-09-30T10:12:51;4.10;;;2.28;;
79126;SDS011;68528;48.814;8.904;2023-09-30T10:21:07;6.70;;;2.65;;
79126;SDS011;68528;48.814;8.904;2023-09-30T10:23:34;8.52;;;2.40;;
79126;SDS011;68528;48.814;8.904;2023-09-30T10:28:42;7.20;;;2.45;;
79126;SDS011;68528;48.814;8.904;2023-09-30T10:31:15;6.82;;;2.60;;
79126;SDS011;68528;48.814;8.904;2023-09-30T10:36:35;6.07;;;2.88;;
79126;SDS011;68528;48.814;8.904;2023-09-30T10:39:10;6.50;;;2.50;;
79126;SDS011;68528;48.814;8.904;2023-09-30T10:44:44;11.68;;;3.05;;
79126;SDS011;68528;48.814;8.904;2023-09-30T10:47:43;6.85;;;2.55;;
79126;SDS011;68528;48.814;8.904;2023-09-30T10:50:03;3.92;;;2.28;;
79126;SDS011;68528;48.814;8.904;2023-09-30T10:53:26;7.05;;;2.30;;
79126;SDS011;68528;48.814;8.904;2023-09-30T10:55:55;6.20;;;2.60;;
79126;SDS011;68528;48.814;8.904;2023-09-30T10:58:39;7.00;;;2.50;;
79126;SDS011;68528;48.814;8.904;2023-09-30T11:01:13;9.18;;;3.45;;
79126;SDS011;68528;48.814;8.904;2023-09-30T11:03:43;6.60;;;2.85;;
79126;SDS011;68528;48.814;8.904;2023-09-30T11:06:11;6.65;;;2.97;;
79126;SDS011;68528;48.814;8.904;2023-09-30T11:08:44;8.35;;;2.85;;
79126;SDS011;68528;48.814;8.904;2023-09-30T11:11:12;8.45;;;3.20;;
79126;SDS011;68528;48.814;8.904;2023-09-30T11:13:40;6.63;;;2.42;;
79126;SDS011;68528;48.814;8.904;2023-09-30T11:16:06;5.70;;;2.55;;
79126;SDS011;68528;48.814;8.904;2023-09-30T11:18:32;9.35;;;2.47;;
79126;SDS011;68528;48.814;8.904;2023-09-30T11:21:05;6.72;;;2.40;;
79126;SDS011;68528;48.814;8.904;2023-09-30T11:23:38;7.88;;;2.80;;
79126;SDS011;68528;48.814;8.904;2023-09-30T11:29:05;6.60;;;2.80;;
79126;SDS011;68528;48.814;8.904;2023-09-30T11:31:31;6.78;;;2.60;;
79126;SDS011;68528;48.814;8.904;2023-09-30T11:34:00;5.88;;;2.80;;
79126;SDS011;68528;48.814;8.904;2023-09-30T11:36:29;11.15;;;2.78;;
79126;SDS011;68528;48.814;8.904;2023-09-30T11:44:00;6.63;;;2.78;;
79126;SDS011;68528;48.814;8.904;2023-09-30T11:49:37;9.20;;;3.42;;
79126;SDS011;68528;48.814;8.904;2023-09-30T11:52:09;7.03;;;3.08;;
79126;SDS011;68528;48.814;8.904;2023-09-30T11:54:39;10.43;;;2.72;;
79126;SDS011;68528;48.814;8.904;2023-09-30T11:59:41;5.82;;;2.70;;
79126;SDS011;68528;48.814;8.904;2023-09-30T12:02:10;8.27;;;3.45;;
79126;SDS011;68528;48.814;8.904;2023-09-30T12:04:37;7.32;;;3.00;;
79126;SDS011;68528;48.814;8.904;2023-09-30T12:23:36;9.23;;;4.00;;
79126;SDS011;68528;48.814;8.904;2023-09-30T12:26:03;11.30;;;3.53;;
79126;SDS011;68528;48.814;8.904;2023-09-30T12:28:33;6.30;;;2.75;;
79126;SDS011;68528;48.814;8.904;2023-09-30T12:31:00;7.25;;;2.95;;
79126;SDS011;68528;48.814;8.904;2023-09-30T12:33:31;9.93;;;3.60;;
79126;SDS011;68528;48.814;8.904;2023-09-30T12:35:57;7.75;;;2.58;;
79126;SDS011;68528;48.814;8.904;2023-09-30T12:38:23;7.55;;;3.15;;
79126;SDS011;68528;48.814;8.904;2023-09-30T12:40:51;5.53;;;2.40;;
79126;SDS011;68528;48.814;8.904;2023-09-30T12:43:18;8.40;;;2.80;;
79126;SDS011;68528;48.814;8.904;2023-09-30T12:45:45;7.28;;;3.20;;
79126;SDS011;68528;48.814;8.904;2023-09-30T12:48:12;7.10;;;3.30;;
79126;SDS011;68528;48.814;8.904;2023-09-30T12:50:39;9.82;;;2.97;;
79126;SDS011;68528;48.814;8.904;2023-09-30T12:55:55;7.70;;;2.97;;
79126;SDS011;68528;48.814;8.904;2023-09-30T12:58:20;9.15;;;3.97;;
79126;SDS011;68528;48.814;8.904;2023-09-30T13:00:48;7.88;;;3.28;;
79126;SDS011;68528;48.814;8.904;2023-09-30T13:03:15;7.70;;;3.08;;
79126;SDS011;68528;48.814;8.904;2023-09-30T13:05:41;7.85;;;3.50;;
79126;SDS011;68528;48.814;8.904;2023-09-30T13:08:06;9.88;;;4.25;;
79126;SDS011;68528;48.814;8.904;2023-09-30T13:10:32;6.90;;;2.78;;
79126;SDS011;68528;48.814;8.904;2023-09-30T13:12:57;5.82;;;2.97;;
79126;SDS011;68528;48.814;8.904;2023-09-30T13:15:22;6.40;;;3.05;;
79126;SDS011;68528;48.814;8.904;2023-09-30T13:17:50;7.63;;;3.22;;
79126;SDS011;68528;48.814;8.904;2023-09-30T13:22:45;6.03;;;2.60;;
79126;SDS011;68528;48.814;8.904;2023-09-30T13:25:10;7.95;;;2.90;;
79126;SDS011;68528;48.814;8.904;2023-09-30T13:27:38;10.13;;;3.25;;
79126;SDS011;68528;48.814;8.904;2023-09-30T13:30:05;8.65;;;3.00;;
79126;SDS011;68528;48.814;8.904;2023-09-30T13:32:34;7.95;;;3.15;;
79126;SDS011;68528;48.814;8.904;2023-09-30T13:35:03;7.38;;;3.63;;
79126;SDS011;68528;48.814;8.904;2023-09-30T13:37:30;7.50;;;2.97;;
79126;SDS011;68528;48.814;8.904;2023-09-30T13:39:58;5.90;;;2.85;;
79126;SDS011;68528;48.814;8.904;2023-09-30T13:42:30;9.27;;;3.10;;
79126;SDS011;68528;48.814;8.904;2023-09-30T13:44:56;6.60;;;2.53;;
79126;SDS011;68528;48.814;8.904;2023-09-30T13:47:25;8.95;;;3.28;;
79126;SDS011;68528;48.814;8.904;2023-09-30T13:49:51;8.13;;;3.15;;
79126;SDS011;68528;48.814;8.904;2023-09-30T13:52:17;7.10;;;3.13;;
79126;SDS011;68528;48.814;8.904;2023-09-30T13:54:42;6.50;;;2.55;;
79126;SDS011;68528;48.814;8.904;2023-09-30T13:57:09;6.47;;;2.63;;
79126;SDS011;68528;48.814;8.904;2023-09-30T13:59:35;7.45;;;3.33;;
79126;SDS011;68528;48.814;8.904;2023-09-30T14:02:01;7.72;;;2.97;;
79126;SDS011;68528;48.814;8.904;2023-09-30T14:04:29;9.73;;;3.33;;
79126;SDS011;68528;48.814;8.904;2023-09-30T14:06:56;9.93;;;3.15;;
79126;SDS011;68528;48.814;8.904;2023-09-30T14:09:24;10.10;;;3.00;;
79126;SDS011;68528;48.814;8.904;2023-09-30T14:11:51;9.23;;;3.05;;
79126;SDS011;68528;48.814;8.904;2023-09-30T14:14:24;9.35;;;3.40;;
79126;SDS011;68528;48.814;8.904;2023-09-30T14:16:51;10.10;;;3.42;;
79126;SDS011;68528;48.814;8.904;2023-09-30T14:19:17;8.70;;;3.22;;
79126;SDS011;68528;48.814;8.904;2023-09-30T14:21:42;7.13;;;3.38;;
79126;SDS011;68528;48.814;8.904;2023-09-30T14:24:08;10.13;;;2.97;;
79126;SDS011;68528;48.814;8.904;2023-09-30T14:26:33;7.53;;;3.17;;
79126;SDS011;68528;48.814;8.904;2023-09-30T14:28:59;6.50;;;3.28;;
79126;SDS011;68528;48.814;8.904;2023-09-30T14:31:24;9.55;;;3.30;;
79126;SDS011;68528;48.814;8.904;2023-09-30T14:33:50;9.50;;;3.78;;
79126;SDS011;68528;48.814;8.904;2023-09-30T14:36:16;7.72;;;3.20;;
79126;SDS011;68528;48.814;8.904;2023-09-30T14:38:43;10.13;;;3.30;;
79126;SDS011;68528;48.814;8.904;2023-09-30T14:41:10;7.88;;;3.03;;
79126;SDS011;68528;48.814;8.904;2023-09-30T14:43:37;7.15;;;3.60;;
79126;SDS011;68528;48.814;8.904;2023-09-30T14:46:02;7.68;;;3.05;;
79126;SDS011;68528;48.814;8.904;2023-09-30T14:48:28;6.32;;;2.65;;
79126;SDS011;68528;48.814;8.904;2023-09-30T14:51:34;7.20;;;2.60;;
79126;SDS011;68528;48.814;8.904;2023-09-30T14:54:04;7.07;;;3.00;;
79126;SDS011;68528;48.814;8.904;2023-09-30T14:56:31;10.02;;;3.58;;
79126;SDS011;68528;48.814;8.904;2023-09-30T14:58:58;5.63;;;2.72;;
79126;SDS011;68528;48.814;8.904;2023-09-30T15:01:26;7.07;;;2.80;;
79126;SDS011;68528;48.814;8.904;2023-09-30T15:03:53;7.28;;;3.35;;
79126;SDS011;68528;48.814;8.904;2023-09-30T15:06:19;6.65;;;2.97;;
79126;SDS011;68528;48.814;8.904;2023-09-30T15:08:46;11.30;;;2.80;;
79126;SDS011;68528;48.814;8.904;2023-09-30T15:11:12;7.72;;;2.65;;
79126;SDS011;68528;48.814;8.904;2023-09-30T15:13:41;12.25;;;3.40;;
79126;SDS011;68528;48.814;8.904;2023-09-30T15:16:15;6.28;;;2.90;;
79126;SDS011;68528;48.814;8.904;2023-09-30T15:18:41;9.50;;;3.30;;
79126;SDS011;68528;48.814;8.904;2023-09-30T15:21:07;8.07;;;3.72;;
79126;SDS011;68528;48.814;8.904;2023-09-30T15:23:32;6.30;;;2.92;;
79126;SDS011;68528;48.814;8.904;2023-09-30T15:25:58;6.68;;;2.72;;
79126;SDS011;68528;48.814;8.904;2023-09-30T15:28:50;10.70;;;4.45;;
79126;SDS011;68528;48.814;8.904;2023-09-30T15:31:17;9.02;;;3.53;;
79126;SDS011;68528;48.814;8.904;2023-09-30T15:33:42;7.25;;;3.40;;
79126;SDS011;68528;48.814;8.904;2023-09-30T15:36:09;10.05;;;3.42;;
79126;SDS011;68528;48.814;8.904;2023-09-30T15:38:35;10.23;;;4.03;;
79126;SDS011;68528;48.814;8.904;2023-09-30T15:41:01;6.85;;;3.10;;
79126;SDS011;68528;48.814;8.904;2023-09-30T15:43:28;8.02;;;3.05;;
79126;SDS011;68528;48.814;8.904;2023-09-30T15:45:54;7.07;;;2.88;;
79126;SDS011;68528;48.814;8.904;2023-09-30T15:48:21;8.80;;;2.90;;
79126;SDS011;68528;48.814;8.904;2023-09-30T15:51:11;10.05;;;3.40;;
79126;SDS011;68528;48.814;8.904;2023-09-30T15:53:36;9.05;;;2.97;;
79126;SDS011;68528;48.814;8.904;2023-09-30T15:56:03;8.95;;;3.45;;
79126;SDS011;68528;48.814;8.904;2023-09-30T15:58:29;6.43;;;2.95;;
79126;SDS011;68528;48.814;8.904;2023-09-30T16:00:55;8.48;;;3.17;;
79126;SDS011;68528;48.814;8.904;2023-09-30T16:03:22;6.88;;;2.50;;
79126;SDS011;68528;48.814;8.904;2023-09-30T16:05:51;7.53;;;3.00;;
79126;SDS011;68528;48.814;8.904;2023-09-30T16:08:23;7.50;;;2.85;;
79126;SDS011;68528;48.814;8.904;2023-09-30T16:10:48;8.57;;;3.25;;
79126;SDS011;68528;48.814;8.904;2023-09-30T16:13:13;8.82;;;3.30;;
79126;SDS011;68528;48.814;8.904;2023-09-30T16:15:41;9.63;;;3.05;;
79126;SDS011;68528;48.814;8.904;2023-09-30T16:18:07;11.68;;;3.47;;
79126;SDS011;68528;48.814;8.904;2023-09-30T16:20:33;9.10;;;3.28;;
79126;SDS011;68528;48.814;8.904;2023-09-30T16:23:04;13.98;;;3.30;;
79126;SDS011;68528;48.814;8.904;2023-09-30T16:25:32;6.07;;;2.80;;
79126;SDS011;68528;48.814;8.904;2023-09-30T16:30:50;9.43;;;3.00;;
79126;SDS011;68528;48.814;8.904;2023-09-30T16:33:15;8.35;;;3.50;;
79126;SDS011;68528;48.814;8.904;2023-09-30T16:35:43;8.68;;;3.33;;
79126;SDS011;68528;48.814;8.904;2023-09-30T16:38:10;11.35;;;3.10;;
79126;SDS011;68528;48.814;8.904;2023-09-30T16:40:35;11.35;;;3.58;;
79126;SDS011;68528;48.814;8.904;2023-09-30T16:43:01;8.13;;;3.13;;
79126;SDS011;68528;48.814;8.904;2023-09-30T16:45:29;9.38;;;3.67;;
79126;SDS011;68528;48.814;8.904;2023-09-30T16:47:55;8.35;;;3.40;;
79126;SDS011;68528;48.814;8.904;2023-09-30T16:53:25;6.38;;;3.00;;
79126;SDS011;68528;48.814;8.904;2023-09-30T16:55:51;9.18;;;3.50;;
79126;SDS011;68528;48.814;8.904;2023-09-30T17:01:39;8.95;;;3.50;;
79126;SDS011;68528;48.814;8.904;2023-09-30T17:04:04;10.38;;;2.95;;
79126;SDS011;68528;48.814;8.904;2023-09-30T17:06:30;9.68;;;4.30;;
79126;SDS011;68528;48.814;8.904;2023-09-30T17:08:55;10.13;;;4.40;;
79126;SDS011;68528;48.814;8.904;2023-09-30T17:11:21;6.65;;;3.15;;
79126;SDS011;68528;48.814;8.904;2023-09-30T17:13:47;6.97;;;3.20;;
79126;SDS011;68528;48.814;8.904;2023-09-30T17:16:19;9.57;;;3.50;;
79126;SDS011;68528;48.814;8.904;2023-09-30T17:22:21;8.32;;;3.22;;
79126;SDS011;68528;48.814;8.904;2023-09-30T17:24:51;8.05;;;3.22;;
79126;SDS011;68528;48.814;8.904;2023-09-30T17:27:58;9.93;;;3.85;;
79126;SDS011;68528;48.814;8.904;2023-09-30T17:30:39;9.05;;;4.15;;
79126;SDS011;68528;48.814;8.904;2023-09-30T17:33:34;9.63;;;4.05;;
79126;SDS011;68528;48.814;8.904;2023-09-30T17:36:32;9.00;;;3.78;;
79126;SDS011;68528;48.814;8.904;2023-09-30T17:38:57;9.00;;;3.67;;
79126;SDS011;68528;48.814;8.904;2023-09-30T17:41:35;10.57;;;3.85;;
79126;SDS011;68528;48.814;8.904;2023-09-30T17:44:03;7.97;;;2.80;;
79126;SDS011;68528;48.814;8.904;2023-09-30T17:46:30;8.23;;;4.15;;
79126;SDS011;68528;48.814;8.904;2023-09-30T17:52:01;8.23;;;4.13;;
79126;SDS011;68528;48.814;8.904;2023-09-30T17:54:26;11.63;;;4.55;;
79126;SDS011;68528;48.814;8.904;2023-09-30T17:56:52;8.38;;;3.65;;
79126;SDS011;68528;48.814;8.904;2023-09-30T17:59:22;9.50;;;3.95;;
79126;SDS011;68528;48.814;8.904;2023-09-30T18:02:26;11.25;;;6.03;;